sensor_id;sensor_type;location;lat;lon;timestamp;pressure;altitude;pressure_sealevel;temperature;humidity
51849;BME280;38952;51.090;-1.832;2023-09-07T00:00:59;100544.16;;;24.36;70.85
51849;BME280;38952;51.090;-1.832;2023-09-07T00:03:26;100546.59;;;24.38;70.80
51849;BME280;38952;51.090;-1.832;2023-09-07T00:05:53;100543.09;;;24.41;71.13
51849;BME280;38952;51.090;-1.832;2023-09-07T00:08:19;100533.09;;;24.40;70.50
51849;BME280;38952;51.090;-1.832;2023-09-07T00:10:44;100544.38;;;24.44;70.33
51849;BME280;38952;51.090;-1.832;2023-09-07T00:13:09;100553.91;;;24.43;70.62
51849;BME280;38952;51.090;-1.832;2023-09-07T00:15:37;100560.13;;;24.36;70.91
51849;BME280;38952;51.090;-1.832;2023-09-07T00:18:02;100571.13;;;24.29;70.72
51849;BME280;38952;51.090;-1.832;2023-09-07T00:20:28;100571.63;;;24.18;70.89
51849;BME280;38952;51.090;-1.832;2023-09-07T00:22:53;100574.44;;;24.06;71.89
51849;BME280;38952;51.090;-1.832;2023-09-07T00:25:19;100552.75;;;23.87;72.24
51849;BME280;38952;51.090;-1.832;2023-09-07T00:27:45;100563.22;;;23.78;72.65
51849;BME280;38952;51.090;-1.832;2023-09-07T00:30:11;100556.25;;;23.72;72.82
51849;BME280;38952;51.090;-1.832;2023-09-07T00:32:37;100559.63;;;23.65;72.58
51849;BME280;38952;51.090;-1.832;2023-09-07T00:35:04;100557.78;;;23.57;73.12
51849;BME280;38952;51.090;-1.832;2023-09-07T00:37:30;100559.19;;;23.50;73.78
51849;BME280;38952;51.090;-1.832;2023-09-07T00:39:56;100554.22;;;23.44;73.70
51849;BME280;38952;51.090;-1.832;2023-09-07T00:42:21;100542.81;;;23.37;74.16
51849;BME280;38952;51.090;-1.832;2023-09-07T00:44:47;100549.69;;;23.27;74.05
51849;BME280;38952;51.090;-1.832;2023-09-07T00:47:14;100555.47;;;23.22;74.44
51849;BME280;38952;51.090;-1.832;2023-09-07T00:49:40;100540.41;;;23.10;74.66
51849;BME280;38952;51.090;-1.832;2023-09-07T00:52:06;100555.47;;;23.09;75.06
51849;BME280;38952;51.090;-1.832;2023-09-07T00:54:33;100541.63;;;23.00;75.68
51849;BME280;38952;51.090;-1.832;2023-09-07T00:56:59;100537.31;;;22.91;76.19
51849;BME280;38952;51.090;-1.832;2023-09-07T00:59:25;100532.19;;;22.80;76.15
51849;BME280;38952;51.090;-1.832;2023-09-07T01:01:50;100519.19;;;22.72;75.82
51849;BME280;38952;51.090;-1.832;2023-09-07T01:04:16;100519.19;;;22.72;76.09
51849;BME280;38952;51.090;-1.832;2023-09-07T01:06:52;100506.41;;;22.71;76.09
51849;BME280;38952;51.090;-1.832;2023-09-07T01:09:24;100513.88;;;22.79;76.15
51849;BME280;38952;51.090;-1.832;2023-09-07T01:11:51;100512.69;;;22.80;75.88
51849;BME280;38952;51.090;-1.832;2023-09-07T01:14:18;100517.81;;;22.78;75.40
51849;BME280;38952;51.090;-1.832;2023-09-07T01:16:44;100523.38;;;22.78;75.58
51849;BME280;38952;51.090;-1.832;2023-09-07T01:19:10;100531.25;;;22.76;75.67
51849;BME280;38952;51.090;-1.832;2023-09-07T01:21:38;100526.63;;;22.68;75.84
51849;BME280;38952;51.090;-1.832;2023-09-07T01:24:08;100517.06;;;22.57;76.38
51849;BME280;38952;51.090;-1.832;2023-09-07T01:26:37;100521.25;;;22.51;76.26
51849;BME280;38952;51.090;-1.832;2023-09-07T01:29:06;100519.16;;;22.47;75.79
51849;BME280;38952;51.090;-1.832;2023-09-07T01:31:38;100511.69;;;22.39;76.38
51849;BME280;38952;51.090;-1.832;2023-09-07T01:34:07;100514.28;;;22.44;76.18
51849;BME280;38952;51.090;-1.832;2023-09-07T01:36:32;100521.34;;;22.42;76.01
51849;BME280;38952;51.090;-1.832;2023-09-07T01:38:58;100515.63;;;22.38;76.55
51849;BME280;38952;51.090;-1.832;2023-09-07T01:41:23;100511.94;;;22.34;76.30
51849;BME280;38952;51.090;-1.832;2023-09-07T01:43:48;100536.31;;;22.37;76.10
51849;BME280;38952;51.090;-1.832;2023-09-07T01:46:14;100537.00;;;22.34;76.71
51849;BME280;38952;51.090;-1.832;2023-09-07T01:48:39;100524.88;;;22.30;76.96
51849;BME280;38952;51.090;-1.832;2023-09-07T01:51:07;100520.66;;;22.24;77.00
51849;BME280;38952;51.090;-1.832;2023-09-07T01:53:32;100532.47;;;22.21;77.14
51849;BME280;38952;51.090;-1.832;2023-09-07T01:55:58;100524.34;;;22.16;77.06
51849;BME280;38952;51.090;-1.832;2023-09-07T01:58:24;100526.66;;;22.13;76.86
51849;BME280;38952;51.090;-1.832;2023-09-07T02:00:52;100533.84;;;22.14;77.17
51849;BME280;38952;51.090;-1.832;2023-09-07T02:03:17;100522.59;;;22.11;77.79
51849;BME280;38952;51.090;-1.832;2023-09-07T02:05:45;100512.97;;;22.08;77.69
51849;BME280;38952;51.090;-1.832;2023-09-07T02:08:10;100507.72;;;22.07;77.25
51849;BME280;38952;51.090;-1.832;2023-09-07T02:10:36;100507.59;;;22.03;77.72
51849;BME280;38952;51.090;-1.832;2023-09-07T02:13:01;100512.81;;;22.05;77.60
51849;BME280;38952;51.090;-1.832;2023-09-07T02:15:27;100507.13;;;22.01;77.83
51849;BME280;38952;51.090;-1.832;2023-09-07T02:17:52;100501.41;;;21.97;78.16
51849;BME280;38952;51.090;-1.832;2023-09-07T02:20:20;100494.34;;;22.00;78.09
51849;BME280;38952;51.090;-1.832;2023-09-07T02:22:46;100498.53;;;22.06;77.75
51849;BME280;38952;51.090;-1.832;2023-09-07T02:25:11;100494.88;;;22.14;78.24
51849;BME280;38952;51.090;-1.832;2023-09-07T02:27:37;100491.88;;;22.20;77.76
51849;BME280;38952;51.090;-1.832;2023-09-07T02:30:03;100500.78;;;22.34;77.77
51849;BME280;38952;51.090;-1.832;2023-09-07T02:32:29;100505.44;;;22.42;77.62
51849;BME280;38952;51.090;-1.832;2023-09-07T02:34:54;100495.34;;;22.50;77.62
51849;BME280;38952;51.090;-1.832;2023-09-07T02:37:20;100499.78;;;22.63;77.08
51849;BME280;38952;51.090;-1.832;2023-09-07T02:39:45;100510.34;;;22.70;76.50
51849;BME280;38952;51.090;-1.832;2023-09-07T02:42:11;100499.19;;;22.70;76.21
51849;BME280;38952;51.090;-1.832;2023-09-07T02:44:36;100495.72;;;22.61;76.84
51849;BME280;38952;51.090;-1.832;2023-09-07T02:47:03;100510.00;;;22.59;76.62
51849;BME280;38952;51.090;-1.832;2023-09-07T02:49:29;100508.25;;;22.55;77.13
51849;BME280;38952;51.090;-1.832;2023-09-07T02:51:54;100512.06;;;22.50;77.54
51849;BME280;38952;51.090;-1.832;2023-09-07T02:54:19;100503.13;;;22.44;77.43
51849;BME280;38952;51.090;-1.832;2023-09-07T02:56:45;100512.03;;;22.38;77.21
51849;BME280;38952;51.090;-1.832;2023-09-07T02:59:10;100513.53;;;22.35;77.68
51849;BME280;38952;51.090;-1.832;2023-09-07T03:01:38;100508.84;;;22.27;77.67
51849;BME280;38952;51.090;-1.832;2023-09-07T03:04:04;100499.06;;;22.21;77.62
51849;BME280;38952;51.090;-1.832;2023-09-07T03:06:30;100498.84;;;22.26;77.40
51849;BME280;38952;51.090;-1.832;2023-09-07T03:08:55;100482.84;;;22.23;77.53
51849;BME280;38952;51.090;-1.832;2023-09-07T03:11:22;100485.22;;;22.33;77.50
51849;BME280;38952;51.090;-1.832;2023-09-07T03:13:47;100484.53;;;22.36;77.08
51849;BME280;38952;51.090;-1.832;2023-09-07T03:16:12;100484.88;;;22.35;77.42
51849;BME280;38952;51.090;-1.832;2023-09-07T03:18:38;100477.31;;;22.35;77.03
51849;BME280;38952;51.090;-1.832;2023-09-07T03:21:03;100487.78;;;22.38;76.95
51849;BME280;38952;51.090;-1.832;2023-09-07T03:23:29;100490.09;;;22.36;77.16
51849;BME280;38952;51.090;-1.832;2023-09-07T03:25:56;100486.84;;;22.34;76.62
51849;BME280;38952;51.090;-1.832;2023-09-07T03:28:22;100511.94;;;22.34;77.07
51849;BME280;38952;51.090;-1.832;2023-09-07T03:30:48;100507.22;;;22.26;77.20
51849;BME280;38952;51.090;-1.832;2023-09-07T03:33:13;100500.44;;;22.14;77.56
51849;BME280;38952;51.090;-1.832;2023-09-07T03:35:39;100501.13;;;22.11;77.49
51849;BME280;38952;51.090;-1.832;2023-09-07T03:38:06;100483.81;;;22.06;77.59
51849;BME280;38952;51.090;-1.832;2023-09-07T03:40:31;100491.38;;;22.05;77.83
51849;BME280;38952;51.090;-1.832;2023-09-07T03:42:57;100487.41;;;22.06;77.79
51849;BME280;38952;51.090;-1.832;2023-09-07T03:45:22;100492.97;;;22.06;77.89
51849;BME280;38952;51.090;-1.832;2023-09-07T03:47:48;100494.41;;;22.12;78.12
51849;BME280;38952;51.090;-1.832;2023-09-07T03:50:13;100479.91;;;22.19;77.75
51849;BME280;38952;51.090;-1.832;2023-09-07T03:52:38;100476.34;;;22.31;77.62
51849;BME280;38952;51.090;-1.832;2023-09-07T03:55:04;100463.38;;;22.35;77.10
51849;BME280;38952;51.090;-1.832;2023-09-07T03:57:30;100461.34;;;22.44;76.90
51849;BME280;38952;51.090;-1.832;2023-09-07T03:59:59;100448.06;;;22.41;76.59
51849;BME280;38952;51.090;-1.832;2023-09-07T04:02:25;100454.47;;;22.42;76.60
51849;BME280;38952;51.090;-1.832;2023-09-07T04:04:52;100463.88;;;22.37;76.46
51849;BME280;38952;51.090;-1.832;2023-09-07T04:07:17;100461.00;;;22.25;76.73
51849;BME280;38952;51.090;-1.832;2023-09-07T04:09:44;100463.81;;;22.25;76.51
51849;BME280;38952;51.090;-1.832;2023-09-07T04:12:09;100466.59;;;22.25;76.18
51849;BME280;38952;51.090;-1.832;2023-09-07T04:14:35;100457.78;;;22.23;76.22
51849;BME280;38952;51.090;-1.832;2023-09-07T04:17:00;100462.50;;;22.22;76.40
51849;BME280;38952;51.090;-1.832;2023-09-07T04:19:26;100459.38;;;22.24;76.57
51849;BME280;38952;51.090;-1.832;2023-09-07T04:21:51;100460.56;;;22.23;76.61
51849;BME280;38952;51.090;-1.832;2023-09-07T04:24:17;100457.97;;;22.18;76.16
51849;BME280;38952;51.090;-1.832;2023-09-07T04:26:42;100459.97;;;22.17;76.36
51849;BME280;38952;51.090;-1.832;2023-09-07T04:29:08;100453.59;;;22.17;76.27
51849;BME280;38952;51.090;-1.832;2023-09-07T04:31:33;100470.16;;;22.13;75.82
51849;BME280;38952;51.090;-1.832;2023-09-07T04:33:59;100469.78;;;22.02;76.15
51849;BME280;38952;51.090;-1.832;2023-09-07T04:36:25;100485.19;;;22.00;76.67
51849;BME280;38952;51.090;-1.832;2023-09-07T04:38:50;100482.69;;;21.86;76.38
51849;BME280;38952;51.090;-1.832;2023-09-07T04:41:16;100490.31;;;21.76;76.89
51849;BME280;38952;51.090;-1.832;2023-09-07T04:43:42;100485.16;;;21.66;76.93
51849;BME280;38952;51.090;-1.832;2023-09-07T04:46:13;100503.41;;;21.55;77.08
51849;BME280;38952;51.090;-1.832;2023-09-07T04:48:40;100489.88;;;21.44;77.30
51849;BME280;38952;51.090;-1.832;2023-09-07T04:51:10;100498.09;;;21.41;77.86
51849;BME280;38952;51.090;-1.832;2023-09-07T04:53:38;100490.41;;;21.38;77.98
51849;BME280;38952;51.090;-1.832;2023-09-07T04:56:05;100487.03;;;21.32;77.88
51849;BME280;38952;51.090;-1.832;2023-09-07T04:58:31;100482.78;;;21.26;78.04
51849;BME280;38952;51.090;-1.832;2023-09-07T05:01:03;100470.72;;;21.22;78.29
51849;BME280;38952;51.090;-1.832;2023-09-07T05:03:29;100469.28;;;21.16;78.43
51849;BME280;38952;51.090;-1.832;2023-09-07T05:05:55;100427.91;;;20.93;78.35
51849;BME280;38952;51.090;-1.832;2023-09-07T05:08:21;100464.41;;;21.13;78.56
51849;BME280;38952;51.090;-1.832;2023-09-07T05:10:48;100470.44;;;21.15;78.65
51849;BME280;38952;51.090;-1.832;2023-09-07T05:13:13;100474.38;;;21.14;78.66
51849;BME280;38952;51.090;-1.832;2023-09-07T05:15:50;100478.28;;;21.13;78.85
51849;BME280;38952;51.090;-1.832;2023-09-07T05:18:16;100470.28;;;21.11;79.06
51849;BME280;38952;51.090;-1.832;2023-09-07T05:20:42;100466.53;;;21.07;78.50
51849;BME280;38952;51.090;-1.832;2023-09-07T05:23:11;100478.84;;;21.06;78.93
51849;BME280;38952;51.090;-1.832;2023-09-07T05:25:45;100479.50;;;21.03;78.95
51849;BME280;38952;51.090;-1.832;2023-09-07T05:28:15;100470.00;;;21.04;78.81
51849;BME280;38952;51.090;-1.832;2023-09-07T05:30:41;100481.00;;;21.00;78.97
51849;BME280;38952;51.090;-1.832;2023-09-07T05:33:08;100467.28;;;20.95;79.04
51849;BME280;38952;51.090;-1.832;2023-09-07T05:35:34;100463.22;;;20.92;79.29
51849;BME280;38952;51.090;-1.832;2023-09-07T05:37:59;100471.50;;;21.01;78.89
51849;BME280;38952;51.090;-1.832;2023-09-07T05:40:25;100465.28;;;21.04;78.82
51849;BME280;38952;51.090;-1.832;2023-09-07T05:42:50;100471.94;;;21.12;78.91
51849;BME280;38952;51.090;-1.832;2023-09-07T05:45:16;100469.78;;;21.18;78.65
51849;BME280;38952;51.090;-1.832;2023-09-07T05:47:41;100463.66;;;21.24;78.31
51849;BME280;38952;51.090;-1.832;2023-09-07T05:50:07;100467.50;;;21.41;78.30
51849;BME280;38952;51.090;-1.832;2023-09-07T05:52:32;100463.31;;;21.56;78.11
51849;BME280;38952;51.090;-1.832;2023-09-07T05:54:58;100459.91;;;21.71;77.23
51849;BME280;38952;51.090;-1.832;2023-09-07T05:57:23;100463.69;;;21.88;77.18
51849;BME280;38952;51.090;-1.832;2023-09-07T05:59:48;100467.00;;;22.02;76.68
51849;BME280;38952;51.090;-1.832;2023-09-07T06:02:14;100467.03;;;22.14;76.63
51849;BME280;38952;51.090;-1.832;2023-09-07T06:04:39;100469.16;;;22.30;75.77
51849;BME280;38952;51.090;-1.832;2023-09-07T06:07:05;100469.56;;;22.41;76.04
51849;BME280;38952;51.090;-1.832;2023-09-07T06:09:30;100472.38;;;22.53;75.24
51849;BME280;38952;51.090;-1.832;2023-09-07T06:11:56;100470.88;;;22.68;75.20
51849;BME280;38952;51.090;-1.832;2023-09-07T06:14:22;100475.03;;;22.87;74.35
51849;BME280;38952;51.090;-1.832;2023-09-07T06:16:48;100476.69;;;23.12;73.48
51849;BME280;38952;51.090;-1.832;2023-09-07T06:19:13;100459.00;;;23.33;73.50
51849;BME280;38952;51.090;-1.832;2023-09-07T06:21:38;100476.03;;;23.68;72.76
51849;BME280;38952;51.090;-1.832;2023-09-07T06:24:04;100476.75;;;23.81;71.51
51849;BME280;38952;51.090;-1.832;2023-09-07T06:26:31;100470.47;;;23.84;71.93
51849;BME280;38952;51.090;-1.832;2023-09-07T06:28:57;100477.34;;;23.87;71.62
51849;BME280;38952;51.090;-1.832;2023-09-07T06:31:22;100481.63;;;23.97;71.77
51849;BME280;38952;51.090;-1.832;2023-09-07T06:33:48;100478.16;;;24.16;71.31
51849;BME280;38952;51.090;-1.832;2023-09-07T06:36:13;100478.38;;;24.39;70.21
51849;BME280;38952;51.090;-1.832;2023-09-07T06:38:39;100484.56;;;24.61;69.39
51849;BME280;38952;51.090;-1.832;2023-09-07T06:41:04;100477.97;;;24.69;69.32
51849;BME280;38952;51.090;-1.832;2023-09-07T06:43:32;100487.72;;;24.75;69.01
51849;BME280;38952;51.090;-1.832;2023-09-07T06:46:08;100489.44;;;24.80;68.27
51849;BME280;38952;51.090;-1.832;2023-09-07T06:48:35;100477.41;;;24.79;68.19
51849;BME280;38952;51.090;-1.832;2023-09-07T06:51:04;100485.53;;;24.84;68.58
51849;BME280;38952;51.090;-1.832;2023-09-07T06:53:30;100485.72;;;24.91;67.68
51849;BME280;38952;51.090;-1.832;2023-09-07T06:55:59;100492.38;;;25.03;67.51
51849;BME280;38952;51.090;-1.832;2023-09-07T06:58:25;100496.69;;;25.16;67.17
51849;BME280;38952;51.090;-1.832;2023-09-07T07:00:51;100496.69;;;25.32;66.50
51849;BME280;38952;51.090;-1.832;2023-09-07T07:03:16;100501.19;;;25.37;66.66
51849;BME280;38952;51.090;-1.832;2023-09-07T07:05:42;100499.88;;;25.31;66.35
51849;BME280;38952;51.090;-1.832;2023-09-07T07:08:09;100508.25;;;25.31;65.97
51849;BME280;38952;51.090;-1.832;2023-09-07T07:10:34;100503.78;;;25.30;65.99
51849;BME280;38952;51.090;-1.832;2023-09-07T07:13:00;100505.31;;;25.43;65.71
51849;BME280;38952;51.090;-1.832;2023-09-07T07:15:25;100503.28;;;25.59;64.85
51849;BME280;38952;51.090;-1.832;2023-09-07T07:17:51;100502.03;;;25.76;64.56
51849;BME280;38952;51.090;-1.832;2023-09-07T07:20:16;100502.72;;;25.89;63.75
51849;BME280;38952;51.090;-1.832;2023-09-07T07:22:42;100494.78;;;26.11;62.97
51849;BME280;38952;51.090;-1.832;2023-09-07T07:25:07;100495.53;;;26.31;62.06
51849;BME280;38952;51.090;-1.832;2023-09-07T07:27:40;100477.28;;;26.41;61.78
51849;BME280;38952;51.090;-1.832;2023-09-07T07:30:09;100496.50;;;26.85;60.99
51849;BME280;38952;51.090;-1.832;2023-09-07T07:32:34;100496.91;;;27.10;60.21
51849;BME280;38952;51.090;-1.832;2023-09-07T07:35:00;100492.88;;;27.34;59.85
51849;BME280;38952;51.090;-1.832;2023-09-07T07:37:28;100483.28;;;27.36;59.03
51849;BME280;38952;51.090;-1.832;2023-09-07T07:39:56;100491.41;;;27.44;58.91
51849;BME280;38952;51.090;-1.832;2023-09-07T07:42:24;100509.25;;;27.59;58.70
51849;BME280;38952;51.090;-1.832;2023-09-07T07:44:49;100490.78;;;27.58;58.25
51849;BME280;38952;51.090;-1.832;2023-09-07T07:47:15;100501.41;;;27.72;57.75
51849;BME280;38952;51.090;-1.832;2023-09-07T07:49:40;100495.91;;;27.83;57.82
51849;BME280;38952;51.090;-1.832;2023-09-07T07:52:05;100506.19;;;27.98;57.27
51849;BME280;38952;51.090;-1.832;2023-09-07T07:54:33;100490.59;;;28.04;56.87
51849;BME280;38952;51.090;-1.832;2023-09-07T07:56:59;100491.69;;;28.30;56.45
51849;BME280;38952;51.090;-1.832;2023-09-07T07:59:24;100487.00;;;28.49;55.93
51849;BME280;38952;51.090;-1.832;2023-09-07T08:01:52;100490.56;;;28.80;54.96
51849;BME280;38952;51.090;-1.832;2023-09-07T08:04:17;100493.56;;;29.05;54.74
51849;BME280;38952;51.090;-1.832;2023-09-07T08:06:43;100483.13;;;29.13;53.88
51849;BME280;38952;51.090;-1.832;2023-09-07T08:09:08;100495.72;;;29.26;53.51
51849;BME280;38952;51.090;-1.832;2023-09-07T08:11:35;100496.69;;;29.52;52.56
51849;BME280;38952;51.090;-1.832;2023-09-07T08:14:00;100499.97;;;29.68;52.15
51849;BME280;38952;51.090;-1.832;2023-09-07T08:16:27;100493.22;;;29.87;51.52
51849;BME280;38952;51.090;-1.832;2023-09-07T08:18:52;100503.00;;;30.15;50.92
51849;BME280;38952;51.090;-1.832;2023-09-07T08:21:17;100501.81;;;30.31;50.77
51849;BME280;38952;51.090;-1.832;2023-09-07T08:23:43;100507.94;;;30.43;50.76
51849;BME280;38952;51.090;-1.832;2023-09-07T08:26:08;100502.69;;;30.85;49.60
51849;BME280;38952;51.090;-1.832;2023-09-07T08:28:35;100512.38;;;31.31;48.98
51849;BME280;38952;51.090;-1.832;2023-09-07T08:31:00;100510.28;;;31.67;47.96
51849;BME280;38952;51.090;-1.832;2023-09-07T08:33:26;100514.63;;;31.94;46.95
51849;BME280;38952;51.090;-1.832;2023-09-07T08:35:56;100510.50;;;32.13;46.58
51849;BME280;38952;51.090;-1.832;2023-09-07T08:38:22;100505.94;;;32.30;46.09
51849;BME280;38952;51.090;-1.832;2023-09-07T08:40:52;100507.72;;;32.69;45.68
51849;BME280;38952;51.090;-1.832;2023-09-07T08:43:18;100507.78;;;33.07;44.56
51849;BME280;38952;51.090;-1.832;2023-09-07T08:45:55;100511.81;;;33.51;43.53
51849;BME280;38952;51.090;-1.832;2023-09-07T08:48:26;100504.41;;;33.96;42.83
51849;BME280;38952;51.090;-1.832;2023-09-07T08:50:53;100504.41;;;34.26;41.78
51849;BME280;38952;51.090;-1.832;2023-09-07T08:53:19;100507.81;;;34.41;41.43
51849;BME280;38952;51.090;-1.832;2023-09-07T08:55:47;100502.31;;;34.58;40.37
51849;BME280;38952;51.090;-1.832;2023-09-07T08:58:15;100501.06;;;34.86;39.70
51849;BME280;38952;51.090;-1.832;2023-09-07T09:00:42;100503.63;;;35.24;39.54
51849;BME280;38952;51.090;-1.832;2023-09-07T09:03:09;100505.69;;;35.44;38.63
51849;BME280;38952;51.090;-1.832;2023-09-07T09:05:38;100501.72;;;35.81;38.33
51849;BME280;38952;51.090;-1.832;2023-09-07T09:08:04;100512.91;;;36.29;37.86
51849;BME280;38952;51.090;-1.832;2023-09-07T09:10:30;100502.59;;;36.51;37.34
51849;BME280;38952;51.090;-1.832;2023-09-07T09:12:55;100501.81;;;36.84;36.63
51849;BME280;38952;51.090;-1.832;2023-09-07T09:15:22;100496.28;;;36.93;36.24
51849;BME280;38952;51.090;-1.832;2023-09-07T09:17:48;100505.34;;;37.04;35.91
51849;BME280;38952;51.090;-1.832;2023-09-07T09:20:21;100503.09;;;37.58;35.54
51849;BME280;38952;51.090;-1.832;2023-09-07T09:22:49;100500.00;;;38.07;34.90
51849;BME280;38952;51.090;-1.832;2023-09-07T09:25:15;100499.38;;;38.29;34.38
51849;BME280;38952;51.090;-1.832;2023-09-07T09:27:40;100501.03;;;38.65;33.54
51849;BME280;38952;51.090;-1.832;2023-09-07T09:30:06;100507.47;;;39.04;33.22
51849;BME280;38952;51.090;-1.832;2023-09-07T09:32:32;100494.34;;;40.18;31.92
51849;BME280;38952;51.090;-1.832;2023-09-07T09:34:57;100488.78;;;43.48;27.80
51849;BME280;38952;51.090;-1.832;2023-09-07T09:37:28;100485.94;;;46.05;24.76
51849;BME280;38952;51.090;-1.832;2023-09-07T09:39:54;100488.69;;;48.59;22.53
51849;BME280;38952;51.090;-1.832;2023-09-07T09:42:21;100486.28;;;50.74;20.39
51849;BME280;38952;51.090;-1.832;2023-09-07T09:44:49;100480.03;;;51.92;19.07
51849;BME280;38952;51.090;-1.832;2023-09-07T09:47:15;100485.25;;;52.52;17.42
51849;BME280;38952;51.090;-1.832;2023-09-07T09:49:40;100478.38;;;53.25;17.37
51849;BME280;38952;51.090;-1.832;2023-09-07T09:52:07;100478.41;;;53.67;16.34
51849;BME280;38952;51.090;-1.832;2023-09-07T09:54:35;100481.41;;;53.96;16.17
51849;BME280;38952;51.090;-1.832;2023-09-07T09:57:00;100479.13;;;54.59;15.76
51849;BME280;38952;51.090;-1.832;2023-09-07T09:59:26;100483.53;;;54.89;15.54
51849;BME280;38952;51.090;-1.832;2023-09-07T10:01:53;100469.97;;;55.15;15.22
51849;BME280;38952;51.090;-1.832;2023-09-07T10:04:20;100468.91;;;55.72;14.22
51849;BME280;38952;51.090;-1.832;2023-09-07T10:06:55;100466.53;;;56.02;14.31
51849;BME280;38952;51.090;-1.832;2023-09-07T10:09:21;100457.00;;;56.65;14.31
51849;BME280;38952;51.090;-1.832;2023-09-07T10:11:53;100457.69;;;56.81;13.48
51849;BME280;38952;51.090;-1.832;2023-09-07T10:14:19;100447.94;;;57.11;13.11
51849;BME280;38952;51.090;-1.832;2023-09-07T10:16:49;100448.28;;;56.82;13.48
51849;BME280;38952;51.090;-1.832;2023-09-07T10:19:18;100451.19;;;55.03;14.40
51849;BME280;38952;51.090;-1.832;2023-09-07T10:21:44;100452.84;;;55.35;14.48
51849;BME280;38952;51.090;-1.832;2023-09-07T10:24:10;100440.56;;;56.62;13.88
51849;BME280;38952;51.090;-1.832;2023-09-07T10:26:35;100456.75;;;57.70;13.15
51849;BME280;38952;51.090;-1.832;2023-09-07T10:29:02;100448.78;;;58.40;12.53
51849;BME280;38952;51.090;-1.832;2023-09-07T10:31:29;100443.44;;;58.74;12.15
51849;BME280;38952;51.090;-1.832;2023-09-07T10:34:08;100444.22;;;59.56;11.95
51849;BME280;38952;51.090;-1.832;2023-09-07T10:36:37;100447.06;;;59.93;11.55
51849;BME280;38952;51.090;-1.832;2023-09-07T10:39:03;100443.66;;;59.87;11.42
51849;BME280;38952;51.090;-1.832;2023-09-07T10:41:40;100431.75;;;60.44;11.00
51849;BME280;38952;51.090;-1.832;2023-09-07T10:44:06;100419.09;;;60.72;10.81
51849;BME280;38952;51.090;-1.832;2023-09-07T10:46:32;100421.13;;;61.21;10.72
51849;BME280;38952;51.090;-1.832;2023-09-07T10:48:58;100413.56;;;61.39;9.82
51849;BME280;38952;51.090;-1.832;2023-09-07T10:51:24;100414.84;;;61.36;10.36
51849;BME280;38952;51.090;-1.832;2023-09-07T10:53:49;100413.03;;;62.06;9.99
51849;BME280;38952;51.090;-1.832;2023-09-07T10:56:15;100400.94;;;62.13;9.93
51849;BME280;38952;51.090;-1.832;2023-09-07T10:58:40;100402.25;;;62.22;9.49
51849;BME280;38952;51.090;-1.832;2023-09-07T11:01:08;100404.50;;;62.67;9.29
51849;BME280;38952;51.090;-1.832;2023-09-07T11:03:37;100399.13;;;63.23;8.92
51849;BME280;38952;51.090;-1.832;2023-09-07T11:06:09;100400.28;;;63.91;8.74
51849;BME280;38952;51.090;-1.832;2023-09-07T11:08:35;100384.69;;;63.29;8.33
51849;BME280;38952;51.090;-1.832;2023-09-07T11:11:02;100393.44;;;63.39;8.63
51849;BME280;38952;51.090;-1.832;2023-09-07T11:13:28;100390.63;;;64.28;8.54
51849;BME280;38952;51.090;-1.832;2023-09-07T11:15:55;100392.69;;;64.25;8.14
51849;BME280;38952;51.090;-1.832;2023-09-07T11:18:22;100373.22;;;63.84;8.69
51849;BME280;38952;51.090;-1.832;2023-09-07T11:20:49;100374.44;;;64.57;8.11
51849;BME280;38952;51.090;-1.832;2023-09-07T11:23:16;100376.38;;;65.06;8.03
51849;BME280;38952;51.090;-1.832;2023-09-07T11:25:42;100372.63;;;65.47;7.31
51849;BME280;38952;51.090;-1.832;2023-09-07T11:28:08;100365.38;;;64.94;7.47
51849;BME280;38952;51.090;-1.832;2023-09-07T11:30:34;100363.41;;;64.45;7.59
51849;BME280;38952;51.090;-1.832;2023-09-07T11:33:05;100357.84;;;63.88;7.43
51849;BME280;38952;51.090;-1.832;2023-09-07T11:35:32;100353.16;;;63.71;7.62
51849;BME280;38952;51.090;-1.832;2023-09-07T11:38:02;100355.72;;;63.77;7.36
51849;BME280;38952;51.090;-1.832;2023-09-07T11:40:29;100349.50;;;64.36;7.42
51849;BME280;38952;51.090;-1.832;2023-09-07T11:42:55;100338.59;;;64.52;7.14
51849;BME280;38952;51.090;-1.832;2023-09-07T11:45:20;100344.41;;;64.25;6.87
51849;BME280;38952;51.090;-1.832;2023-09-07T11:47:46;100340.41;;;64.46;7.11
51849;BME280;38952;51.090;-1.832;2023-09-07T11:50:18;100323.75;;;64.27;6.90
51849;BME280;38952;51.090;-1.832;2023-09-07T11:52:46;100339.97;;;64.51;6.94
51849;BME280;38952;51.090;-1.832;2023-09-07T11:55:14;100333.97;;;65.05;6.46
51849;BME280;38952;51.090;-1.832;2023-09-07T11:57:39;100323.34;;;64.46;6.54
51849;BME280;38952;51.090;-1.832;2023-09-07T12:00:06;100320.25;;;64.30;6.94
51849;BME280;38952;51.090;-1.832;2023-09-07T12:02:36;100325.41;;;64.56;6.67
51849;BME280;38952;51.090;-1.832;2023-09-07T12:05:02;100328.03;;;64.77;6.27
51849;BME280;38952;51.090;-1.832;2023-09-07T12:07:29;100323.44;;;65.02;6.51
51849;BME280;38952;51.090;-1.832;2023-09-07T12:09:55;100332.28;;;65.58;6.48
51849;BME280;38952;51.090;-1.832;2023-09-07T12:12:23;100319.50;;;65.11;6.32
51849;BME280;38952;51.090;-1.832;2023-09-07T12:14:48;100324.63;;;65.38;6.39
51849;BME280;38952;51.090;-1.832;2023-09-07T12:17:13;100319.69;;;66.03;6.03
51849;BME280;38952;51.090;-1.832;2023-09-07T12:19:39;100326.84;;;65.82;6.12
51849;BME280;38952;51.090;-1.832;2023-09-07T12:22:07;100315.06;;;64.70;6.25
51849;BME280;38952;51.090;-1.832;2023-09-07T12:24:33;100301.19;;;65.03;6.70
51849;BME280;38952;51.090;-1.832;2023-09-07T12:26:58;100315.31;;;65.74;6.51
51849;BME280;38952;51.090;-1.832;2023-09-07T12:29:25;100310.69;;;66.01;5.99
51849;BME280;38952;51.090;-1.832;2023-09-07T12:31:50;100306.16;;;66.46;5.94
51849;BME280;38952;51.090;-1.832;2023-09-07T12:34:16;100299.97;;;66.26;6.02
51849;BME280;38952;51.090;-1.832;2023-09-07T12:36:41;100314.16;;;67.07;5.59